Time;durP1;ratioP1;P1;durP2;ratioP2;P2;SDS_P1;SDS_P2;PMS_P1;PMS_P2;Temp;Humidity;BMP_temperature;BMP_pressure;BME280_temperature;BME280_humidity;BME280_pressure;Samples;Min_cycle;Max_cycle;Signal;HPM_P1;HPM_P2
2023/12/27 00:00:38;;;;;;;1.67;1.58;;;;;;;;;;5054696;28;20048;-25
2023/12/27 00:03:05;;;;;;;1.50;1.40;;;;;;;;;;5053957;28;20080;-25
2023/12/27 00:05:31;;;;;;;1.40;1.30;;;;;;;;;;5053489;28;20029;-28
2023/12/27 00:07:57;;;;;;;1.60;1.50;;;;;;;;;;5053776;28;20062;-25
2023/12/27 00:10:23;;;;;;;1.40;1.30;;;;;;;;;;5053443;28;20033;-26
2023/12/27 00:12:50;;;;;;;1.20;1.20;;;;;;;;;;5053563;28;20025;-25
2023/12/27 00:15:16;;;;;;;1.67;1.20;;;;;;;;;;5053458;28;20347;-25
2023/12/27 00:17:42;;;;;;;1.45;1.35;;;;;;;;;;5053634;28;20033;-25
2023/12/27 00:20:09;;;;;;;1.65;1.55;;;;;;;;;;5053355;28;20414;-25
2023/12/27 00:22:35;;;;;;;1.30;1.20;;;;;;;;;;5053185;28;20063;-25
2023/12/27 00:25:01;;;;;;;1.40;1.30;;;;;;;;;;5053298;28;20093;-25
2023/12/27 00:27:27;;;;;;;1.70;1.60;;;;;;;;;;5053266;28;20020;-25
2023/12/27 00:29:53;;;;;;;1.27;1.20;;;;;;;;;;5053463;28;20036;-25
2023/12/27 00:32:19;;;;;;;1.80;1.70;;;;;;;;;;5053328;28;20102;-25
2023/12/27 00:34:48;;;;;;;1.50;1.40;;;;;;;;;;5053902;28;20035;-26
2023/12/27 00:37:15;;;;;;;1.58;1.40;;;;;;;;;;5057216;28;20067;-25
2023/12/27 00:39:41;;;;;;;1.48;1.35;;;;;;;;;;5056515;28;20082;-25
2023/12/27 00:42:08;;;;;;;1.25;1.15;;;;;;;;;;5056731;28;20033;-25
2023/12/27 00:44:34;;;;;;;1.65;1.23;;;;;;;;;;5056791;28;20415;-25
2023/12/27 00:47:00;;;;;;;1.92;1.60;;;;;;;;;;5056744;28;20025;-25
2023/12/27 00:49:26;;;;;;;1.50;1.40;;;;;;;;;;5056379;28;20057;-25
2023/12/27 00:51:52;;;;;;;1.50;1.40;;;;;;;;;;5056268;28;20042;-25
2023/12/27 00:54:19;;;;;;;1.42;1.33;;;;;;;;;;5056644;28;20380;-25
2023/12/27 00:56:45;;;;;;;1.67;1.52;;;;;;;;;;5056681;28;20107;-25
2023/12/27 00:59:11;;;;;;;1.33;1.17;;;;;;;;;;5055383;28;20444;-25
2023/12/27 01:01:37;;;;;;;1.42;1.33;;;;;;;;;;5056264;28;20029;-25
2023/12/27 01:04:04;;;;;;;2.58;1.30;;;;;;;;;;5007641;28;1408471;-25
2023/12/27 01:06:30;;;;;;;1.25;1.15;;;;;;;;;;5057438;28;20067;-25
2023/12/27 01:08:56;;;;;;;1.52;1.38;;;;;;;;;;5057311;28;20093;-25
2023/12/27 01:11:22;;;;;;;1.83;1.42;;;;;;;;;;5057264;28;20021;-25
2023/12/27 01:13:48;;;;;;;1.48;1.38;;;;;;;;;;5057261;28;20078;-25
2023/12/27 01:16:15;;;;;;;1.38;1.27;;;;;;;;;;5057209;28;20063;-25
2023/12/27 01:18:41;;;;;;;1.73;1.63;;;;;;;;;;5057239;28;20082;-25
2023/12/27 01:21:09;;;;;;;1.40;1.30;;;;;;;;;;5057143;28;20021;-25
2023/12/27 01:23:35;;;;;;;1.13;1.02;;;;;;;;;;5056943;28;20039;-25
2023/12/27 01:26:01;;;;;;;1.60;1.50;;;;;;;;;;5057075;28;20021;-25
2023/12/27 01:28:27;;;;;;;2.20;1.85;;;;;;;;;;5057257;28;20031;-25
2023/12/27 01:30:53;;;;;;;1.85;1.63;;;;;;;;;;5056939;28;20033;-25
2023/12/27 01:33:19;;;;;;;1.30;1.20;;;;;;;;;;5056810;28;20387;-25
2023/12/27 01:35:46;;;;;;;1.25;1.15;;;;;;;;;;5056865;28;20363;-26
2023/12/27 01:38:12;;;;;;;1.08;1.00;;;;;;;;;;5056738;28;20432;-25
2023/12/27 01:40:38;;;;;;;1.15;1.15;;;;;;;;;;5057044;28;20048;-25
2023/12/27 01:43:04;;;;;;;1.55;1.40;;;;;;;;;;5056670;28;20028;-25
2023/12/27 01:45:31;;;;;;;1.65;1.42;;;;;;;;;;5056575;28;20035;-25
2023/12/27 01:47:57;;;;;;;1.50;1.02;;;;;;;;;;5056884;28;20025;-25
2023/12/27 01:50:23;;;;;;;1.40;1.30;;;;;;;;;;5056608;28;20036;-25
2023/12/27 01:52:49;;;;;;;1.55;1.45;;;;;;;;;;5056414;28;20021;-25
2023/12/27 01:55:16;;;;;;;1.30;1.17;;;;;;;;;;5056492;28;20104;-25
2023/12/27 01:57:43;;;;;;;1.25;1.13;;;;;;;;;;5056714;28;20334;-25
2023/12/27 02:00:09;;;;;;;1.50;1.40;;;;;;;;;;5056647;28;20063;-25
2023/12/27 02:02:38;;;;;;;1.13;1.10;;;;;;;;;;5056301;28;20047;-25
2023/12/27 02:05:04;;;;;;;1.50;1.40;;;;;;;;;;5016866;28;20054;-25
2023/12/27 02:07:30;;;;;;;1.38;1.27;;;;;;;;;;5016788;28;20041;-25
2023/12/27 02:09:58;;;;;;;1.42;1.23;;;;;;;;;;5017047;28;20346;-25
2023/12/27 02:12:28;;;;;;;1.55;1.40;;;;;;;;;;5016290;28;20036;-25
2023/12/27 02:14:54;;;;;;;1.30;1.20;;;;;;;;;;5016428;28;20049;-25
2023/12/27 02:17:20;;;;;;;1.25;1.17;;;;;;;;;;5016639;28;20033;-25
2023/12/27 02:19:47;;;;;;;1.50;1.40;;;;;;;;;;5016839;28;20069;-25
2023/12/27 02:22:15;;;;;;;1.13;1.13;;;;;;;;;;5016176;28;20097;-25
2023/12/27 02:24:42;;;;;;;1.20;1.10;;;;;;;;;;5016493;28;20153;-25
2023/12/27 02:27:08;;;;;;;1.40;1.30;;;;;;;;;;5016216;28;20417;-25
2023/12/27 02:29:35;;;;;;;1.80;1.70;;;;;;;;;;5016470;28;20373;-25
2023/12/27 02:32:01;;;;;;;1.13;1.13;;;;;;;;;;5015941;28;20033;-25
2023/12/27 02:34:27;;;;;;;1.20;1.10;;;;;;;;;;5015999;28;20032;-25
2023/12/27 02:36:54;;;;;;;1.63;1.30;;;;;;;;;;5015049;28;20053;-25
2023/12/27 02:39:20;;;;;;;1.48;1.38;;;;;;;;;;5015956;28;20109;-25
2023/12/27 02:41:46;;;;;;;1.38;1.27;;;;;;;;;;5015883;28;20092;-25
2023/12/27 02:44:13;;;;;;;1.30;1.20;;;;;;;;;;5015851;28;20030;-25
2023/12/27 02:46:39;;;;;;;1.50;1.17;;;;;;;;;;4998687;28;20364;-25
2023/12/27 02:49:05;;;;;;;1.33;1.23;;;;;;;;;;5016089;28;20116;-25
2023/12/27 02:51:31;;;;;;;0.85;0.85;;;;;;;;;;5015689;28;20081;-25
2023/12/27 02:53:57;;;;;;;1.40;1.30;;;;;;;;;;5015695;28;20045;-25
2023/12/27 02:56:23;;;;;;;1.85;1.20;;;;;;;;;;5015671;28;20029;-25
2023/12/27 02:58:49;;;;;;;1.00;1.00;;;;;;;;;;5015158;28;20025;-25
2023/12/27 03:01:15;;;;;;;1.27;1.17;;;;;;;;;;5015828;28;20022;-25
2023/12/27 03:03:42;;;;;;;1.38;1.30;;;;;;;;;;5033283;28;20048;-25
2023/12/27 03:06:08;;;;;;;1.02;1.02;;;;;;;;;;5055423;28;20021;-25
2023/12/27 03:08:35;;;;;;;1.10;1.10;;;;;;;;;;5055348;28;20452;-25
2023/12/27 03:11:02;;;;;;;1.95;1.50;;;;;;;;;;5055128;28;20021;-25
2023/12/27 03:13:28;;;;;;;1.65;1.17;;;;;;;;;;5054914;28;20033;-25
2023/12/27 03:15:54;;;;;;;2.03;1.92;;;;;;;;;;5054985;28;20028;-25
2023/12/27 03:18:20;;;;;;;1.35;1.25;;;;;;;;;;5055226;28;20509;-25
2023/12/27 03:20:46;;;;;;;1.45;1.35;;;;;;;;;;5054918;28;20078;-25
2023/12/27 03:23:13;;;;;;;1.20;1.10;;;;;;;;;;5054848;28;20456;-26
2023/12/27 03:25:39;;;;;;;1.25;1.20;;;;;;;;;;5055098;28;20068;-25
2023/12/27 03:28:05;;;;;;;1.48;1.30;;;;;;;;;;5055090;28;20377;-26
2023/12/27 03:30:32;;;;;;;1.23;1.20;;;;;;;;;;5054706;28;20116;-25
2023/12/27 03:32:58;;;;;;;1.08;1.08;;;;;;;;;;5054559;28;20025;-25
2023/12/27 03:35:24;;;;;;;1.48;1.27;;;;;;;;;;5054650;28;20032;-25
2023/12/27 03:37:50;;;;;;;1.25;1.15;;;;;;;;;;5054683;28;20028;-25
2023/12/27 03:40:16;;;;;;;1.27;1.17;;;;;;;;;;5054866;28;20021;-25
2023/12/27 03:42:42;;;;;;;2.00;1.10;;;;;;;;;;5054569;28;20364;-25
2023/12/27 03:45:09;;;;;;;1.23;1.15;;;;;;;;;;5054880;28;20090;-26
2023/12/27 03:47:35;;;;;;;1.08;0.98;;;;;;;;;;5054548;28;20375;-25
2023/12/27 03:50:02;;;;;;;1.67;1.20;;;;;;;;;;5054538;28;20029;-25
2023/12/27 03:52:29;;;;;;;1.20;1.10;;;;;;;;;;5054604;28;20033;-25
2023/12/27 03:54:55;;;;;;;1.70;1.60;;;;;;;;;;5054781;28;20024;-25
2023/12/27 03:57:23;;;;;;;1.35;1.10;;;;;;;;;;5054469;28;20032;-25
2023/12/27 03:59:49;;;;;;;1.77;1.40;;;;;;;;;;5054365;28;20036;-25
2023/12/27 04:02:15;;;;;;;1.58;1.48;;;;;;;;;;5054344;28;20112;-25
2023/12/27 04:04:42;;;;;;;1.08;1.08;;;;;;;;;;5054290;28;20055;-25
2023/12/27 04:07:08;;;;;;;1.25;1.13;;;;;;;;;;5054658;28;20352;-25
2023/12/27 04:09:34;;;;;;;1.52;1.42;;;;;;;;;;5054867;28;20029;-25
2023/12/27 04:12:00;;;;;;;1.30;1.20;;;;;;;;;;5058283;28;20028;-25
2023/12/27 04:14:26;;;;;;;1.40;1.10;;;;;;;;;;5058888;28;20029;-25
2023/12/27 04:16:52;;;;;;;1.63;1.52;;;;;;;;;;5058359;28;20032;-25
2023/12/27 04:19:18;;;;;;;1.85;1.30;;;;;;;;;;5058324;28;20027;-25
2023/12/27 04:21:45;;;;;;;1.08;1.08;;;;;;;;;;5058205;28;20045;-25
2023/12/27 04:24:11;;;;;;;1.55;1.20;;;;;;;;;;5058471;28;20379;-25
2023/12/27 04:26:41;;;;;;;1.10;1.00;;;;;;;;;;5058161;28;20025;-25
2023/12/27 04:29:08;;;;;;;1.15;1.10;;;;;;;;;;5058082;28;20460;-25
2023/12/27 04:31:34;;;;;;;0.90;0.90;;;;;;;;;;5057969;28;20086;-25
2023/12/27 04:34:00;;;;;;;1.25;1.15;;;;;;;;;;5057969;28;20498;-25
2023/12/27 04:36:26;;;;;;;1.20;1.20;;;;;;;;;;5057973;28;20029;-26
2023/12/27 04:38:52;;;;;;;1.50;1.40;;;;;;;;;;5057915;28;20035;-25
2023/12/27 04:41:18;;;;;;;1.27;1.17;;;;;;;;;;5057931;28;20097;-25
2023/12/27 04:43:45;;;;;;;0.90;0.90;;;;;;;;;;5058072;28;20017;-25
2023/12/27 04:46:11;;;;;;;1.30;0.98;;;;;;;;;;5057764;28;20089;-25
2023/12/27 04:48:37;;;;;;;1.02;0.95;;;;;;;;;;5058516;28;20025;-25
2023/12/27 04:51:03;;;;;;;1.45;1.23;;;;;;;;;;5057739;28;20456;-25
2023/12/27 04:53:29;;;;;;;1.10;1.00;;;;;;;;;;5057602;28;20040;-26
2023/12/27 04:55:55;;;;;;;0.98;0.98;;;;;;;;;;5056694;28;20031;-25
2023/12/27 04:58:22;;;;;;;0.85;0.85;;;;;;;;;;5057477;28;20101;-25
2023/12/27 05:00:48;;;;;;;1.27;1.17;;;;;;;;;;5057765;28;20025;-25
2023/12/27 05:03:14;;;;;;;1.58;1.45;;;;;;;;;;5057191;28;20056;-25
2023/12/27 05:05:40;;;;;;;1.50;1.40;;;;;;;;;;5057682;28;20033;-27
2023/12/27 05:08:06;;;;;;;1.33;0.98;;;;;;;;;;5057576;28;20385;-26
2023/12/27 05:10:32;;;;;;;1.20;0.90;;;;;;;;;;5057205;28;20105;-26
2023/12/27 05:13:00;;;;;;;1.00;1.00;;;;;;;;;;5056976;28;20104;-26
2023/12/27 05:15:26;;;;;;;1.20;1.10;;;;;;;;;;5056874;28;20024;-26
2023/12/27 05:17:52;;;;;;;1.40;0.90;;;;;;;;;;5056961;28;20020;-26
2023/12/27 05:20:18;;;;;;;1.10;1.10;;;;;;;;;;5056663;28;20064;-26
2023/12/27 05:22:44;;;;;;;1.77;1.00;;;;;;;;;;5056721;28;20086;-26
2023/12/27 05:25:11;;;;;;;1.35;1.20;;;;;;;;;;5056965;28;20406;-26
2023/12/27 05:27:37;;;;;;;2.17;1.10;;;;;;;;;;5056681;28;20452;-26
2023/12/27 05:30:04;;;;;;;2.50;1.10;;;;;;;;;;5056606;28;20107;-26
2023/12/27 05:32:30;;;;;;;1.45;1.10;;;;;;;;;;5056632;28;20040;-26
2023/12/27 05:34:56;;;;;;;1.40;1.30;;;;;;;;;;5056918;28;20028;-30
2023/12/27 05:37:22;;;;;;;1.58;1.10;;;;;;;;;;5056695;28;20029;-26
2023/12/27 05:39:48;;;;;;;6.80;1.50;;;;;;;;;;5056595;28;20025;-26
2023/12/27 05:42:14;;;;;;;3.40;1.35;;;;;;;;;;5056557;28;20188;-26
2023/12/27 05:44:41;;;;;;;3.10;1.00;;;;;;;;;;5056480;28;20051;-26
2023/12/27 05:47:07;;;;;;;1.23;1.08;;;;;;;;;;5056478;28;20356;-26
2023/12/27 05:49:33;;;;;;;2.67;1.45;;;;;;;;;;5056637;28;20333;-26
2023/12/27 05:52:00;;;;;;;1.45;1.35;;;;;;;;;;5056459;28;20407;-26
2023/12/27 05:54:26;;;;;;;11.77;3.15;;;;;;;;;;5056255;28;20025;-26
2023/12/27 05:56:55;;;;;;;1.75;1.20;;;;;;;;;;5056246;28;20495;-26
2023/12/27 05:59:21;;;;;;;2.95;1.25;;;;;;;;;;5056454;28;20025;-26
2023/12/27 06:01:54;;;;;;;1.20;1.08;;;;;;;;;;5055988;28;20048;-26
2023/12/27 06:04:21;;;;;;;2.13;1.13;;;;;;;;;;5055967;28;20349;-26
2023/12/27 06:06:49;;;;;;;2.33;1.35;;;;;;;;;;5056003;28;20029;-26
2023/12/27 06:09:18;;;;;;;0.98;0.88;;;;;;;;;;5056096;28;20049;-26
2023/12/27 06:11:45;;;;;;;2.58;1.27;;;;;;;;;;5056334;28;20029;-26
2023/12/27 06:14:11;;;;;;;2.10;1.08;;;;;;;;;;5055962;28;20100;-26
2023/12/27 06:16:38;;;;;;;2.67;1.30;;;;;;;;;;5056079;28;20021;-26
2023/12/27 06:19:04;;;;;;;1.30;1.00;;;;;;;;;;5056328;28;20025;-26
2023/12/27 06:21:30;;;;;;;2.28;1.55;;;;;;;;;;5056243;28;20025;-26
2023/12/27 06:23:57;;;;;;;1.27;1.10;;;;;;;;;;5056563;28;20032;-26
2023/12/27 06:26:23;;;;;;;1.65;1.30;;;;;;;;;;5055887;28;20090;-26
2023/12/27 06:28:49;;;;;;;7.07;1.20;;;;;;;;;;5056347;28;20017;-26
2023/12/27 06:31:16;;;;;;;1.70;1.05;;;;;;;;;;5055703;28;20024;-26
2023/12/27 06:33:42;;;;;;;1.30;1.00;;;;;;;;;;5054884;28;20355;-26
2023/12/27 06:36:08;;;;;;;1.55;1.15;;;;;;;;;;5055618;28;20535;-26
2023/12/27 06:38:34;;;;;;;1.30;1.20;;;;;;;;;;5055575;28;20025;-26
2023/12/27 06:41:03;;;;;;;3.65;1.40;;;;;;;;;;5055454;28;20029;-26
2023/12/27 06:43:29;;;;;;;3.58;1.00;;;;;;;;;;5055410;28;20363;-26
2023/12/27 06:45:55;;;;;;;2.17;1.48;;;;;;;;;;5055695;28;20090;-26
2023/12/27 06:48:21;;;;;;;3.28;1.08;;;;;;;;;;5055380;28;20029;-26
2023/12/27 06:50:48;;;;;;;1.30;1.20;;;;;;;;;;5055680;28;20450;-26
2023/12/27 06:53:15;;;;;;;3.67;1.30;;;;;;;;;;5055462;28;20419;-26
2023/12/27 06:55:41;;;;;;;3.47;1.15;;;;;;;;;;5055247;28;20028;-26
2023/12/27 06:58:07;;;;;;;2.38;1.33;;;;;;;;;;5055245;28;20041;-26
2023/12/27 07:00:35;;;;;;;3.50;1.23;;;;;;;;;;5055440;28;20033;-26
2023/12/27 07:03:01;;;;;;;1.73;1.10;;;;;;;;;;5054802;28;20037;-26
2023/12/27 07:05:27;;;;;;;1.30;1.20;;;;;;;;;;5055587;28;20126;-26
2023/12/27 07:07:54;;;;;;;2.00;1.20;;;;;;;;;;5055008;28;20070;-26
2023/12/27 07:10:20;;;;;;;3.13;1.23;;;;;;;;;;5053950;28;20359;-26
2023/12/27 07:12:47;;;;;;;4.03;0.82;;;;;;;;;;5054797;28;20098;-26
2023/12/27 07:15:13;;;;;;;2.05;1.08;;;;;;;;;;5054903;28;20060;-26
2023/12/27 07:17:39;;;;;;;1.52;1.05;;;;;;;;;;5054801;28;20017;-26
2023/12/27 07:20:05;;;;;;;1.23;0.90;;;;;;;;;;5055306;28;20032;-26
2023/12/27 07:22:32;;;;;;;2.22;1.00;;;;;;;;;;5054368;28;20040;-26
2023/12/27 07:24:58;;;;;;;4.57;1.20;;;;;;;;;;5055005;28;20406;-26
2023/12/27 07:27:24;;;;;;;3.80;1.20;;;;;;;;;;5054596;28;20021;-26
2023/12/27 07:29:50;;;;;;;1.52;1.17;;;;;;;;;;5054865;28;20029;-26
2023/12/27 07:32:16;;;;;;;5.80;1.40;;;;;;;;;;5054469;28;20024;-26
2023/12/27 07:34:43;;;;;;;1.23;1.00;;;;;;;;;;5055314;28;20032;-26
2023/12/27 07:37:09;;;;;;;2.30;1.08;;;;;;;;;;5054451;28;20083;-26
2023/12/27 07:39:35;;;;;;;2.92;1.35;;;;;;;;;;5054560;28;20021;-26
2023/12/27 07:42:02;;;;;;;1.02;1.02;;;;;;;;;;5054664;28;20360;-26
2023/12/27 07:44:28;;;;;;;2.45;1.13;;;;;;;;;;5054591;28;20037;-26
2023/12/27 07:46:55;;;;;;;1.15;1.00;;;;;;;;;;5054542;28;20414;-26
2023/12/27 07:49:21;;;;;;;3.78;1.60;;;;;;;;;;5054263;28;20029;-26
2023/12/27 07:51:47;;;;;;;5.60;1.42;;;;;;;;;;5054870;28;20029;-26
2023/12/27 07:54:13;;;;;;;2.58;1.15;;;;;;;;;;5054631;28;20029;-26
2023/12/27 07:56:39;;;;;;;1.75;1.65;;;;;;;;;;5054561;28;20025;-26
2023/12/27 07:59:06;;;;;;;3.35;1.20;;;;;;;;;;5053257;28;20371;-26
2023/12/27 08:01:32;;;;;;;2.03;1.30;;;;;;;;;;5054023;28;20112;-26
2023/12/27 08:04:01;;;;;;;3.38;1.63;;;;;;;;;;5053865;28;20045;-26
2023/12/27 08:06:27;;;;;;;1.48;0.90;;;;;;;;;;5054488;28;20025;-26
2023/12/27 08:08:57;;;;;;;2.17;1.55;;;;;;;;;;5054483;28;20448;-26
2023/12/27 08:11:23;;;;;;;9.27;1.23;;;;;;;;;;5053240;28;20522;-26
2023/12/27 08:13:49;;;;;;;2.40;1.73;;;;;;;;;;5054196;28;20021;-26
2023/12/27 08:16:17;;;;;;;5.28;1.55;;;;;;;;;;5054183;28;20468;-26
2023/12/27 08:18:43;;;;;;;3.13;1.35;;;;;;;;;;5054223;28;20098;-26
2023/12/27 08:21:09;;;;;;;1.67;1.30;;;;;;;;;;5054174;28;20025;-26
2023/12/27 08:23:38;;;;;;;1.00;0.77;;;;;;;;;;5054085;28;20037;-26
2023/12/27 08:26:07;;;;;;;3.67;1.65;;;;;;;;;;5054587;28;20347;-26
2023/12/27 08:28:37;;;;;;;5.97;1.10;;;;;;;;;;5054285;28;20029;-26
2023/12/27 08:31:06;;;;;;;2.15;1.35;;;;;;;;;;5054242;28;20100;-26
2023/12/27 08:33:37;;;;;;;1.77;1.15;;;;;;;;;;5054306;28;20025;-26
2023/12/27 08:36:03;;;;;;;1.45;1.08;;;;;;;;;;5054310;28;20048;-26
2023/12/27 08:38:29;;;;;;;5.43;1.20;;;;;;;;;;5054247;28;20021;-27
2023/12/27 08:40:56;;;;;;;2.38;1.60;;;;;;;;;;5053930;28;20108;-26
2023/12/27 08:43:27;;;;;;;4.72;1.88;;;;;;;;;;5053784;28;20467;-26
2023/12/27 08:45:54;;;;;;;3.85;1.17;;;;;;;;;;5054167;28;20414;-26
2023/12/27 08:48:20;;;;;;;3.38;1.20;;;;;;;;;;5053719;28;20029;-26
2023/12/27 08:50:48;;;;;;;4.53;1.30;;;;;;;;;;5054387;28;20049;-26
2023/12/27 08:53:14;;;;;;;1.20;1.10;;;;;;;;;;5053641;28;20341;-26
2023/12/27 08:55:41;;;;;;;3.58;1.20;;;;;;;;;;5054751;28;20025;-26
2023/12/27 08:58:09;;;;;;;2.80;1.13;;;;;;;;;;5057372;28;20035;-26
2023/12/27 09:00:35;;;;;;;2.97;1.13;;;;;;;;;;5057057;28;20031;-26
2023/12/27 09:03:01;;;;;;;6.75;1.25;;;;;;;;;;5057048;28;20525;-26
2023/12/27 09:05:28;;;;;;;5.13;1.27;;;;;;;;;;5057393;28;20112;-26
2023/12/27 09:07:54;;;;;;;2.72;1.33;;;;;;;;;;5039917;28;20025;-26
2023/12/27 09:10:20;;;;;;;2.63;0.90;;;;;;;;;;5056215;28;20032;-26
2023/12/27 09:12:46;;;;;;;1.20;1.10;;;;;;;;;;5057353;28;20029;-26
2023/12/27 09:15:14;;;;;;;2.17;1.58;;;;;;;;;;5057120;28;20017;-26
2023/12/27 09:17:40;;;;;;;2.63;1.20;;;;;;;;;;5057458;28;20100;-26
2023/12/27 09:20:07;;;;;;;3.42;1.10;;;;;;;;;;5057428;28;20025;-26
2023/12/27 09:22:34;;;;;;;7.53;1.35;;;;;;;;;;5057055;28;20341;-26
2023/12/27 09:25:00;;;;;;;4.68;1.17;;;;;;;;;;5057033;28;20033;-26
2023/12/27 09:27:26;;;;;;;2.47;1.08;;;;;;;;;;5057247;28;20036;-26
2023/12/27 09:29:52;;;;;;;2.20;1.50;;;;;;;;;;5057190;28;20036;-26
2023/12/27 09:32:19;;;;;;;4.57;2.03;;;;;;;;;;5056750;28;20025;-26
2023/12/27 09:34:45;;;;;;;3.00;1.30;;;;;;;;;;5057368;28;20029;-26
2023/12/27 09:37:11;;;;;;;8.15;1.92;;;;;;;;;;5056857;28;20021;-26
2023/12/27 09:39:37;;;;;;;5.82;1.05;;;;;;;;;;5056927;28;20098;-26
2023/12/27 09:42:04;;;;;;;2.97;1.15;;;;;;;;;;5056542;28;20090;-26
2023/12/27 09:44:32;;;;;;;4.65;1.20;;;;;;;;;;5056578;28;20033;-26
2023/12/27 09:46:59;;;;;;;5.63;1.25;;;;;;;;;;5056635;28;20036;-26
2023/12/27 09:49:26;;;;;;;5.28;1.17;;;;;;;;;;5056534;28;20182;-26
2023/12/27 09:51:54;;;;;;;2.05;0.90;;;;;;;;;;5056566;28;20037;-26
2023/12/27 09:54:20;;;;;;;4.25;1.52;;;;;;;;;;5056371;28;20033;-26
2023/12/27 09:56:47;;;;;;;4.70;1.30;;;;;;;;;;5056347;28;20025;-26
2023/12/27 09:59:19;;;;;;;4.80;1.30;;;;;;;;;;5056678;28;20025;-26
2023/12/27 10:01:46;;;;;;;1.75;1.30;;;;;;;;;;5056387;28;20021;-26
2023/12/27 10:04:23;;;;;;;5.22;1.25;;;;;;;;;;5056081;28;20052;-26
2023/12/27 10:06:51;;;;;;;3.50;0.98;;;;;;;;;;5055836;28;20052;-26
2023/12/27 10:09:17;;;;;;;2.60;1.30;;;;;;;;;;5055722;28;20052;-26
2023/12/27 10:11:43;;;;;;;2.28;1.13;;;;;;;;;;5056338;28;20372;-26
2023/12/27 10:14:10;;;;;;;4.03;1.40;;;;;;;;;;5056102;28;20477;-26
2023/12/27 10:16:36;;;;;;;1.85;1.05;;;;;;;;;;5056183;28;20333;-26
2023/12/27 10:19:04;;;;;;;2.65;0.98;;;;;;;;;;5056410;28;20360;-26
2023/12/27 10:21:43;;;;;;;2.38;0.93;;;;;;;;;;5056030;28;20099;-26
2023/12/27 10:24:12;;;;;;;5.03;1.42;;;;;;;;;;5055885;28;20017;-26
2023/12/27 10:26:38;;;;;;;1.95;1.25;;;;;;;;;;5056147;28;20021;-26
2023/12/27 10:29:07;;;;;;;4.95;1.10;;;;;;;;;;5055847;28;20027;-26
2023/12/27 10:31:33;;;;;;;2.85;0.90;;;;;;;;;;5055648;28;20380;-26
2023/12/27 10:34:03;;;;;;;1.58;1.00;;;;;;;;;;5055690;28;20395;-26
2023/12/27 10:36:30;;;;;;;3.83;1.23;;;;;;;;;;5055603;28;20040;-26
2023/12/27 10:39:01;;;;;;;7.63;1.58;;;;;;;;;;5054657;28;20025;-26
2023/12/27 10:41:28;;;;;;;10.95;1.50;;;;;;;;;;5055890;28;20345;-26
2023/12/27 10:43:54;;;;;;;4.03;1.10;;;;;;;;;;5055450;28;20021;-26
2023/12/27 10:46:20;;;;;;;1.60;1.13;;;;;;;;;;5055561;28;20021;-26
2023/12/27 10:48:48;;;;;;;3.92;1.23;;;;;;;;;;5055321;28;20021;-26
2023/12/27 10:51:15;;;;;;;2.15;0.90;;;;;;;;;;5055385;28;20021;-26
2023/12/27 10:53:43;;;;;;;4.28;1.20;;;;;;;;;;5054262;28;20463;-26
2023/12/27 10:56:09;;;;;;;4.45;1.35;;;;;;;;;;5055300;28;20043;-26
2023/12/27 10:58:37;;;;;;;9.05;1.38;;;;;;;;;;5055191;28;20017;-26
2023/12/27 11:01:04;;;;;;;11.13;1.10;;;;;;;;;;5055246;28;20025;-26
2023/12/27 11:03:32;;;;;;;5.57;1.00;;;;;;;;;;5054881;28;20066;-26
2023/12/27 11:05:59;;;;;;;1.40;0.95;;;;;;;;;;5055139;28;20104;-26
2023/12/27 11:08:28;;;;;;;14.88;1.50;;;;;;;;;;5055075;28;20037;-26
2023/12/27 11:10:54;;;;;;;3.50;1.10;;;;;;;;;;5055279;28;20359;-26
2023/12/27 11:13:21;;;;;;;2.78;1.30;;;;;;;;;;5053936;28;20352;-26
2023/12/27 11:15:47;;;;;;;3.72;1.60;;;;;;;;;;5055219;28;20417;-26
2023/12/27 11:18:14;;;;;;;2.97;1.25;;;;;;;;;;5054591;28;20068;-26
2023/12/27 11:20:40;;;;;;;5.57;1.42;;;;;;;;;;5054901;28;20407;-26
2023/12/27 11:23:07;;;;;;;9.40;1.67;;;;;;;;;;5054814;28;20463;-26
2023/12/27 11:25:33;;;;;;;8.82;1.15;;;;;;;;;;5054691;28;20032;-26
2023/12/27 11:27:59;;;;;;;10.63;1.70;;;;;;;;;;5054820;28;20052;-26
2023/12/27 11:30:29;;;;;;;2.50;1.10;;;;;;;;;;5054751;28;20059;-26
2023/12/27 11:32:55;;;;;;;2.90;1.05;;;;;;;;;;5055060;28;20028;-26
2023/12/27 11:35:33;;;;;;;2.95;1.33;;;;;;;;;;5054699;28;20356;-26
2023/12/27 11:38:23;;;;;;;6.55;1.10;;;;;;;;;;5054728;28;20033;-26
2023/12/27 11:40:51;;;;;;;7.32;1.60;;;;;;;;;;5054877;28;20070;-26
2023/12/27 11:43:21;;;;;;;2.50;1.20;;;;;;;;;;5054725;28;20029;-26
2023/12/27 11:45:57;;;;;;;3.53;1.50;;;;;;;;;;5054522;28;20040;-26
2023/12/27 11:48:23;;;;;;;4.65;1.33;;;;;;;;;;5054462;28;20029;-26
2023/12/27 11:50:50;;;;;;;2.65;1.13;;;;;;;;;;5054381;28;20029;-26
2023/12/27 11:53:18;;;;;;;2.22;0.90;;;;;;;;;;5054214;28;20379;-26
2023/12/27 11:55:46;;;;;;;6.25;1.42;;;;;;;;;;5054381;28;20119;-26
2023/12/27 11:58:15;;;;;;;5.55;1.30;;;;;;;;;;5053259;28;20040;-26
2023/12/27 12:00:41;;;;;;;5.65;1.58;;;;;;;;;;5054279;28;20045;-26
2023/12/27 12:03:20;;;;;;;3.05;1.20;;;;;;;;;;5054277;28;20471;-26
2023/12/27 12:06:05;;;;;;;7.15;1.25;;;;;;;;;;5054514;28;20395;-26
2023/12/27 12:08:36;;;;;;;6.00;1.45;;;;;;;;;;5053353;28;20029;-26
2023/12/27 12:11:10;;;;;;;4.20;1.10;;;;;;;;;;5054467;28;20021;-26
2023/12/27 12:13:38;;;;;;;7.25;1.20;;;;;;;;;;5054027;28;20456;-26
2023/12/27 12:16:05;;;;;;;9.30;1.60;;;;;;;;;;5054446;28;20464;-26
2023/12/27 12:18:32;;;;;;;13.13;1.65;;;;;;;;;;5054207;28;20497;-26
2023/12/27 12:20:59;;;;;;;7.20;1.67;;;;;;;;;;5054077;28;20048;-26
2023/12/27 12:23:25;;;;;;;10.73;1.58;;;;;;;;;;5054018;28;20021;-26
2023/12/27 12:25:51;;;;;;;11.02;1.65;;;;;;;;;;5054325;28;20086;-26
2023/12/27 12:28:17;;;;;;;9.88;1.23;;;;;;;;;;5053760;28;20467;-26
2023/12/27 12:30:46;;;;;;;10.52;1.65;;;;;;;;;;5053639;28;20079;-26
2023/12/27 12:33:12;;;;;;;9.25;1.92;;;;;;;;;;5057794;28;20052;-27
2023/12/27 12:35:40;;;;;;;7.43;1.77;;;;;;;;;;5057780;28;20029;-26
2023/12/27 12:38:06;;;;;;;8.23;2.13;;;;;;;;;;5057802;28;20040;-26
2023/12/27 12:40:33;;;;;;;8.85;1.65;;;;;;;;;;5057881;28;20021;-26
2023/12/27 12:42:59;;;;;;;12.32;1.80;;;;;;;;;;5057719;28;20041;-25
2023/12/27 12:45:25;;;;;;;10.70;1.85;;;;;;;;;;5057736;28;20031;-25
2023/12/27 12:47:51;;;;;;;8.70;1.80;;;;;;;;;;5057890;28;20032;-25
2023/12/27 12:50:19;;;;;;;12.18;1.67;;;;;;;;;;5057892;28;20025;-25
2023/12/27 12:52:45;;;;;;;8.75;1.67;;;;;;;;;;5057448;28;20025;-25
2023/12/27 12:55:12;;;;;;;8.40;3.22;;;;;;;;;;5057813;28;20025;-25
2023/12/27 12:57:38;;;;;;;10.07;1.90;;;;;;;;;;5057443;28;20512;-25
2023/12/27 13:00:08;;;;;;;10.82;1.60;;;;;;;;;;5057724;28;20032;-25
2023/12/27 13:02:34;;;;;;;4.25;1.70;;;;;;;;;;5057971;28;20186;-25
2023/12/27 13:05:00;;;;;;;5.07;1.88;;;;;;;;;;5057174;28;20049;-25
2023/12/27 13:07:28;;;;;;;7.55;1.42;;;;;;;;;;5057264;28;20045;-25
2023/12/27 13:09:54;;;;;;;5.28;1.90;;;;;;;;;;5056210;28;20044;-25
2023/12/27 13:12:20;;;;;;;7.57;1.73;;;;;;;;;;5057108;28;20096;-25
2023/12/27 13:14:46;;;;;;;13.43;1.50;;;;;;;;;;5057204;28;20459;-26
2023/12/27 13:17:13;;;;;;;6.10;1.70;;;;;;;;;;5057142;28;20025;-25
2023/12/27 13:19:39;;;;;;;8.05;2.45;;;;;;;;;;5057029;28;20478;-25
2023/12/27 13:22:05;;;;;;;5.25;1.48;;;;;;;;;;5057173;28;20113;-26
2023/12/27 13:24:31;;;;;;;10.63;2.55;;;;;;;;;;5057190;28;20029;-26
2023/12/27 13:26:57;;;;;;;7.30;1.60;;;;;;;;;;5057450;28;20045;-26
2023/12/27 13:29:23;;;;;;;10.45;1.77;;;;;;;;;;5056853;28;20033;-26
2023/12/27 13:31:50;;;;;;;11.43;1.38;;;;;;;;;;5056389;28;20052;-26
2023/12/27 13:34:16;;;;;;;3.63;1.48;;;;;;;;;;5056708;28;20021;-26
2023/12/27 13:36:42;;;;;;;3.00;1.45;;;;;;;;;;5056597;28;20159;-26
2023/12/27 13:39:08;;;;;;;7.18;1.60;;;;;;;;;;5056831;28;20049;-26
2023/12/27 13:41:34;;;;;;;5.20;1.38;;;;;;;;;;5056478;28;20102;-26
2023/12/27 13:44:00;;;;;;;6.00;1.67;;;;;;;;;;5055706;28;20021;-26
2023/12/27 13:46:26;;;;;;;3.53;1.48;;;;;;;;;;5056896;28;20021;-26
2023/12/27 13:48:53;;;;;;;7.00;1.75;;;;;;;;;;5057362;28;20035;-26
2023/12/27 13:51:19;;;;;;;6.03;1.30;;;;;;;;;;5056562;28;20351;-23
2023/12/27 13:53:46;;;;;;;3.22;1.38;;;;;;;;;;5056562;28;20048;-24
2023/12/27 13:56:12;;;;;;;5.38;1.45;;;;;;;;;;5056427;28;20025;-26
2023/12/27 13:58:40;;;;;;;4.47;1.30;;;;;;;;;;5056329;28;20017;-24
2023/12/27 14:01:06;;;;;;;6.32;1.25;;;;;;;;;;5056389;28;20031;-23
2023/12/27 14:03:32;;;;;;;9.48;1.48;;;;;;;;;;5056056;28;20049;-23
2023/12/27 14:06:02;;;;;;;7.05;2.17;;;;;;;;;;5056313;28;20025;-23
2023/12/27 14:08:28;;;;;;;4.63;1.85;;;;;;;;;;5057198;28;20040;-23
2023/12/27 14:10:55;;;;;;;6.43;2.33;;;;;;;;;;5056241;28;20124;-23
2023/12/27 14:13:22;;;;;;;6.25;1.75;;;;;;;;;;5056035;28;20423;-22
2023/12/27 14:15:48;;;;;;;10.02;2.97;;;;;;;;;;5056400;28;20017;-22
2023/12/27 14:18:14;;;;;;;6.15;1.30;;;;;;;;;;5056347;28;20358;-26
2023/12/27 14:20:40;;;;;;;2.60;1.80;;;;;;;;;;5055136;28;20178;-23
2023/12/27 14:23:08;;;;;;;9.10;2.42;;;;;;;;;;5056090;28;20052;-22
2023/12/27 14:25:35;;;;;;;3.83;1.40;;;;;;;;;;5055934;28;20048;-25
2023/12/27 14:28:06;;;;;;;2.95;1.33;;;;;;;;;;5055869;28;20025;-22
2023/12/27 14:30:32;;;;;;;6.20;1.90;;;;;;;;;;5054955;28;20448;-22
2023/12/27 14:32:59;;;;;;;3.92;2.10;;;;;;;;;;5055644;28;20032;-22
2023/12/27 14:35:25;;;;;;;6.30;1.60;;;;;;;;;;5056044;28;20403;-23
2023/12/27 14:37:52;;;;;;;3.65;1.48;;;;;;;;;;5055984;28;20020;-25
2023/12/27 14:40:18;;;;;;;4.60;1.50;;;;;;;;;;5055941;28;20024;-24